createdAt,value
2018-11-12T00:00:24.689Z,14.36
2018-11-12T00:08:45.669Z,14.42
2018-11-12T00:17:06.743Z,14.25
2018-11-12T00:25:27.726Z,14.35
2018-11-12T00:33:48.764Z,14.27
2018-11-12T00:42:09.767Z,14.27
2018-11-12T00:50:30.805Z,14.24
2018-11-12T00:58:52.118Z,14.28
2018-11-12T01:07:13.107Z,14.27
2018-11-12T01:15:34.109Z,14.25
2018-11-12T01:23:55.086Z,14.33
2018-11-12T01:32:16.137Z,14.36
2018-11-12T01:40:37.156Z,14.19
2018-11-12T01:48:58.176Z,14.07
2018-11-12T01:57:19.196Z,14.01
2018-11-12T02:05:40.217Z,14.07
2018-11-12T02:14:01.198Z,14.18
2018-11-12T02:22:22.215Z,14.20
2018-11-12T02:30:43.197Z,14.29
2018-11-12T02:39:04.293Z,14.32
2018-11-12T02:47:25.290Z,14.29
2018-11-12T02:55:46.292Z,14.30
2018-11-12T03:04:07.274Z,14.32
2018-11-12T03:12:28.259Z,14.34
2018-11-12T03:20:49.288Z,14.40
2018-11-12T03:29:10.309Z,14.53
2018-11-12T03:37:31.299Z,14.54
2018-11-12T03:45:52.320Z,14.54
2018-11-12T03:54:13.305Z,14.60
2018-11-12T04:02:34.326Z,14.67
2018-11-12T04:10:55.310Z,14.67
2018-11-12T04:19:16.330Z,14.67
2018-11-12T04:27:37.357Z,14.60
2018-11-12T04:35:58.401Z,14.65
2018-11-12T04:44:19.419Z,14.66
2018-11-12T04:52:40.489Z,14.76
2018-11-12T05:01:01.493Z,14.79
2018-11-12T05:09:22.493Z,14.79
2018-11-12T05:17:43.544Z,14.71
2018-11-12T05:26:04.531Z,14.73
2018-11-12T05:34:25.513Z,14.76
2018-11-12T05:42:46.534Z,14.74
2018-11-12T05:51:07.518Z,14.73
2018-11-12T05:59:28.525Z,14.75
2018-11-12T06:07:49.510Z,14.74
2018-11-12T06:16:10.510Z,14.63
2018-11-12T06:24:31.534Z,14.67
2018-11-12T06:32:52.531Z,14.64
2018-11-12T06:41:13.560Z,14.49
2018-11-12T06:49:34.586Z,14.60
2018-11-12T06:57:55.613Z,14.73
2018-11-12T07:06:16.607Z,14.68
2018-11-12T07:14:37.617Z,14.56
2018-11-12T07:22:58.721Z,14.66
2018-11-12T07:31:19.747Z,14.75
2018-11-12T07:39:40.783Z,14.80
2018-11-12T07:48:01.781Z,14.86
2018-11-12T07:56:22.815Z,14.89
2018-11-12T08:04:43.792Z,14.87
2018-11-12T08:13:04.789Z,14.93
2018-11-12T08:21:25.789Z,15.00
2018-11-12T08:29:46.910Z,15.17
2018-11-12T08:38:07.866Z,15.22
2018-11-12T08:46:28.917Z,15.36
2018-11-12T08:54:49.953Z,15.41
2018-11-12T09:03:10.956Z,15.69
2018-11-12T09:11:31.950Z,15.96
2018-11-12T09:19:52.991Z,16.09
2018-11-12T09:28:13.999Z,16.21
2018-11-12T09:36:35.072Z,16.39
2018-11-12T09:44:56.069Z,16.67
2018-11-12T09:53:17.092Z,16.88
2018-11-12T10:01:38.569Z,17.27
2018-11-12T10:10:01.472Z,17.51
2018-11-12T10:18:20.176Z,17.75
2018-11-12T10:26:41.191Z,17.99
2018-11-12T10:35:02.174Z,18.42
2018-11-12T10:43:23.169Z,18.47
2018-11-12T10:51:44.188Z,18.22
2018-11-12T11:00:05.208Z,17.92
2018-11-12T11:08:26.209Z,17.79
2018-11-12T11:16:47.228Z,18.11
2018-11-12T11:25:08.256Z,18.30
2018-11-12T11:33:29.394Z,18.36
2018-11-12T11:41:50.378Z,18.80
2018-11-12T11:50:11.448Z,19.44
2018-11-12T11:58:32.437Z,19.36
2018-11-12T12:06:53.414Z,19.25
2018-11-12T12:15:14.423Z,19.87
2018-11-12T12:23:35.402Z,20.13
2018-11-12T12:31:56.405Z,19.42
2018-11-12T12:40:17.424Z,18.43
2018-11-12T12:56:59.256Z,17.94
2018-11-12T13:05:20.238Z,17.73
2018-11-12T13:13:41.243Z,17.25
2018-11-12T13:22:02.226Z,16.93
2018-11-12T13:30:23.237Z,16.72
2018-11-12T13:38:44.343Z,16.66
2018-11-12T13:47:05.329Z,16.20
2018-11-12T13:55:26.348Z,16.09
2018-11-12T14:03:47.334Z,15.68
2018-11-12T14:12:08.357Z,15.71
2018-11-12T14:20:29.451Z,15.56
2018-11-12T14:28:50.427Z,15.65
2018-11-12T14:37:11.446Z,15.75
2018-11-12T14:45:32.458Z,15.73
2018-11-12T14:53:53.457Z,15.68
2018-11-12T15:02:14.442Z,15.48
2018-11-12T15:10:35.426Z,15.33
2018-11-12T15:18:56.421Z,15.48
2018-11-12T15:27:17.403Z,15.43
2018-11-12T15:35:38.428Z,15.39
2018-11-12T15:43:59.425Z,15.26
2018-11-12T15:52:20.435Z,15.23
2018-11-12T16:00:41.433Z,15.18
2018-11-12T16:09:02.441Z,15.20
2018-11-12T16:17:23.419Z,15.26
2018-11-12T16:25:44.429Z,15.16
2018-11-12T16:34:05.455Z,14.93
2018-11-12T16:42:26.484Z,14.91
2018-11-12T16:50:47.473Z,15.14
2018-11-12T16:59:08.455Z,14.97
2018-11-12T17:07:29.451Z,14.65
2018-11-12T17:15:50.438Z,14.52
2018-11-12T17:24:11.465Z,14.50
2018-11-12T17:32:32.473Z,14.70
2018-11-12T17:40:53.472Z,14.70
2018-11-12T17:49:14.565Z,14.77
2018-11-12T17:57:35.570Z,14.69
2018-11-12T18:05:56.636Z,14.79
2018-11-12T18:14:17.660Z,14.76
2018-11-12T18:22:38.684Z,14.64
2018-11-12T18:30:59.714Z,14.48
2018-11-12T18:39:20.714Z,14.42
2018-11-12T18:47:41.741Z,14.29
2018-11-12T18:56:02.736Z,14.19
2018-11-12T19:04:23.960Z,14.03
2018-11-12T19:12:44.962Z,14.03
2018-11-12T19:21:05.986Z,14.01
2018-11-12T19:29:27.012Z,14.10
2018-11-12T19:37:48.032Z,14.29
2018-11-12T19:46:09.056Z,14.28
2018-11-12T19:54:30.145Z,14.46
2018-11-12T20:02:51.147Z,14.50
2018-11-12T20:11:12.214Z,14.53
2018-11-12T20:19:33.238Z,14.62
2018-11-12T20:27:54.237Z,14.65
2018-11-12T20:36:15.268Z,14.77
2018-11-12T20:44:36.249Z,14.66
2018-11-12T20:52:57.277Z,14.66
2018-11-12T21:01:18.293Z,14.69
2018-11-12T21:09:39.376Z,14.83
2018-11-12T21:18:00.415Z,14.81
2018-11-12T21:26:21.471Z,14.73
2018-11-12T21:34:42.657Z,14.57
2018-11-12T21:43:03.878Z,14.55
2018-11-12T21:51:24.915Z,14.40
2018-11-12T21:59:46.150Z,14.43
2018-11-12T22:08:07.242Z,14.32
2018-11-12T22:16:28.395Z,14.02
2018-11-12T22:24:49.562Z,13.96
2018-11-12T22:33:10.617Z,13.87
2018-11-12T22:41:31.640Z,13.86
2018-11-12T22:49:52.645Z,13.88
2018-11-12T22:58:13.626Z,13.83
2018-11-12T23:06:34.626Z,13.84
2018-11-12T23:14:55.695Z,13.78
2018-11-12T23:23:16.678Z,13.91
2018-11-12T23:31:37.677Z,13.87
2018-11-12T23:39:58.681Z,13.73
2018-11-12T23:48:19.681Z,13.67
2018-11-12T23:56:40.673Z,13.58
